Аэропорт: Большое Савино. Пермь

ICAO: USPP

METAR:
2021-10-23 02:00:00
USPP 230200Z 25008MPS 9999 BKN025 10/06 Q0997 R21/290150 NOSIG RMK QFE737
METAR:
2021-10-22 22:57:00
TAF USPP 222257Z 2300/2324 24006G17MPS 6000 BKN016 TEMPO 2300/2309 BKN011CB BECMG 2318/2320 20003G10MPS